sensor_id;sensor_type;location;lat;lon;timestamp;pressure;altitude;pressure_sealevel;temperature;humidity
65013;BME280;51715;39.432;-77.518;2023-04-20T00:02:10;99760.54;;;21.49;20.95
65013;BME280;51715;39.432;-77.518;2023-04-20T00:04:38;99764.62;;;21.35;21.19
65013;BME280;51715;39.432;-77.518;2023-04-20T00:07:07;99770.13;;;20.86;21.99
65013;BME280;51715;39.432;-77.518;2023-04-20T00:09:35;99773.27;;;21.08;22.03
65013;BME280;51715;39.432;-77.518;2023-04-20T00:12:04;99775.41;;;20.90;22.45
65013;BME280;51715;39.432;-77.518;2023-04-20T00:14:33;99779.41;;;20.45;22.93
65013;BME280;51715;39.432;-77.518;2023-04-20T00:17:00;99779.70;;;20.46;23.17
65013;BME280;51715;39.432;-77.518;2023-04-20T00:19:29;99780.62;;;20.67;23.08
65013;BME280;51715;39.432;-77.518;2023-04-20T00:21:58;99781.97;;;20.15;23.38
65013;BME280;51715;39.432;-77.518;2023-04-20T00:24:26;99783.95;;;20.06;23.90
65013;BME280;51715;39.432;-77.518;2023-04-20T00:26:55;99785.23;;;20.16;23.53
65013;BME280;51715;39.432;-77.518;2023-04-20T00:29:23;99783.98;;;19.93;23.35
65013;BME280;51715;39.432;-77.518;2023-04-20T00:31:52;99787.24;;;19.55;22.68
65013;BME280;51715;39.432;-77.518;2023-04-20T00:34:20;99792.49;;;19.73;22.69
65013;BME280;51715;39.432;-77.518;2023-04-20T00:36:49;99791.07;;;19.66;23.63
65013;BME280;51715;39.432;-77.518;2023-04-20T00:39:17;99793.68;;;19.64;23.04
65013;BME280;51715;39.432;-77.518;2023-04-20T00:41:46;99797.55;;;19.62;23.28
65013;BME280;51715;39.432;-77.518;2023-04-20T00:44:14;99799.02;;;19.53;22.55
65013;BME280;51715;39.432;-77.518;2023-04-20T00:46:42;99799.45;;;19.37;22.69
65013;BME280;51715;39.432;-77.518;2023-04-20T00:49:11;99797.41;;;19.47;23.03
65013;BME280;51715;39.432;-77.518;2023-04-20T00:51:40;99801.28;;;19.07;24.01
65013;BME280;51715;39.432;-77.518;2023-04-20T00:54:08;99802.21;;;18.92;24.41
65013;BME280;51715;39.432;-77.518;2023-04-20T00:56:38;99805.38;;;18.73;23.61
65013;BME280;51715;39.432;-77.518;2023-04-20T00:59:06;99803.68;;;18.70;23.84
65013;BME280;51715;39.432;-77.518;2023-04-20T01:01:34;99806.48;;;18.44;24.79
65013;BME280;51715;39.432;-77.518;2023-04-20T01:04:02;99808.08;;;18.71;24.50
65013;BME280;51715;39.432;-77.518;2023-04-20T01:06:32;99810.90;;;18.73;24.14
65013;BME280;51715;39.432;-77.518;2023-04-20T01:09:01;99813.80;;;18.52;24.17
65013;BME280;51715;39.432;-77.518;2023-04-20T01:11:29;99819.28;;;18.63;23.91
65013;BME280;51715;39.432;-77.518;2023-04-20T01:13:58;99822.30;;;18.53;23.85
65013;BME280;51715;39.432;-77.518;2023-04-20T01:16:27;99832.80;;;18.57;23.62
65013;BME280;51715;39.432;-77.518;2023-04-20T01:18:55;99840.23;;;18.57;23.12
65013;BME280;51715;39.432;-77.518;2023-04-20T01:21:23;99842.26;;;18.55;23.51
65013;BME280;51715;39.432;-77.518;2023-04-20T01:23:51;99845.12;;;18.54;23.11
65013;BME280;51715;39.432;-77.518;2023-04-20T01:26:22;99849.07;;;18.52;23.32
65013;BME280;51715;39.432;-77.518;2023-04-20T01:28:51;99850.11;;;18.48;23.33
65013;BME280;51715;39.432;-77.518;2023-04-20T01:31:19;99857.44;;;18.35;23.92
65013;BME280;51715;39.432;-77.518;2023-04-20T01:33:47;99866.03;;;18.41;24.52
65013;BME280;51715;39.432;-77.518;2023-04-20T01:36:15;99876.49;;;18.09;24.82
65013;BME280;51715;39.432;-77.518;2023-04-20T01:38:43;99879.93;;;17.90;24.71
65013;BME280;51715;39.432;-77.518;2023-04-20T01:41:12;99883.58;;;17.82;24.16
65013;BME280;51715;39.432;-77.518;2023-04-20T01:43:42;99886.72;;;17.82;25.29
65013;BME280;51715;39.432;-77.518;2023-04-20T01:46:11;99889.22;;;17.53;26.09
65013;BME280;51715;39.432;-77.518;2023-04-20T01:48:39;99892.48;;;17.73;25.68
65013;BME280;51715;39.432;-77.518;2023-04-20T01:51:07;99892.90;;;17.84;26.12
65013;BME280;51715;39.432;-77.518;2023-04-20T01:53:36;99894.68;;;17.64;25.58
65013;BME280;51715;39.432;-77.518;2023-04-20T01:56:05;99894.48;;;17.72;25.46
65013;BME280;51715;39.432;-77.518;2023-04-20T01:58:34;99896.27;;;17.78;25.76
65013;BME280;51715;39.432;-77.518;2023-04-20T02:01:02;99899.29;;;17.66;25.51
65013;BME280;51715;39.432;-77.518;2023-04-20T02:03:32;99900.34;;;17.70;25.70
65013;BME280;51715;39.432;-77.518;2023-04-20T02:06:00;99900.35;;;17.41;25.47
65013;BME280;51715;39.432;-77.518;2023-04-20T02:08:29;99903.74;;;17.53;25.64
65013;BME280;51715;39.432;-77.518;2023-04-20T02:10:58;99910.16;;;17.26;25.95
65013;BME280;51715;39.432;-77.518;2023-04-20T02:13:25;99906.12;;;17.55;26.02
65013;BME280;51715;39.432;-77.518;2023-04-20T02:15:54;99902.53;;;17.35;25.73
65013;BME280;51715;39.432;-77.518;2023-04-20T02:18:23;99899.08;;;16.86;27.43
65013;BME280;51715;39.432;-77.518;2023-04-20T02:20:51;99899.19;;;16.85;27.55
65013;BME280;51715;39.432;-77.518;2023-04-20T02:23:19;99899.95;;;17.16;27.79
65013;BME280;51715;39.432;-77.518;2023-04-20T02:25:48;99899.30;;;16.91;27.29
65013;BME280;51715;39.432;-77.518;2023-04-20T02:28:17;99898.39;;;17.35;26.63
65013;BME280;51715;39.432;-77.518;2023-04-20T02:30:46;99897.74;;;16.71;26.62
65013;BME280;51715;39.432;-77.518;2023-04-20T02:33:14;99897.70;;;16.92;27.16
65013;BME280;51715;39.432;-77.518;2023-04-20T02:35:43;99905.75;;;16.75;27.57
65013;BME280;51715;39.432;-77.518;2023-04-20T02:38:11;99905.53;;;16.56;27.33
65013;BME280;51715;39.432;-77.518;2023-04-20T02:40:39;99909.85;;;16.92;27.08
65013;BME280;51715;39.432;-77.518;2023-04-20T02:43:07;99909.83;;;16.62;26.89
65013;BME280;51715;39.432;-77.518;2023-04-20T02:45:36;99911.79;;;16.59;26.80
65013;BME280;51715;39.432;-77.518;2023-04-20T02:48:05;99912.02;;;16.87;26.54
65013;BME280;51715;39.432;-77.518;2023-04-20T02:50:34;99911.76;;;16.62;26.96
65013;BME280;51715;39.432;-77.518;2023-04-20T02:53:03;99916.14;;;16.89;27.15
65013;BME280;51715;39.432;-77.518;2023-04-20T02:55:31;99916.90;;;16.85;27.13
65013;BME280;51715;39.432;-77.518;2023-04-20T02:57:59;99918.26;;;16.48;28.07
65013;BME280;51715;39.432;-77.518;2023-04-20T03:00:28;99918.24;;;16.48;27.18
65013;BME280;51715;39.432;-77.518;2023-04-20T03:02:57;99921.34;;;16.69;27.45
65013;BME280;51715;39.432;-77.518;2023-04-20T03:05:24;99920.15;;;16.49;28.05
65013;BME280;51715;39.432;-77.518;2023-04-20T03:07:52;99918.35;;;16.71;28.35
65013;BME280;51715;39.432;-77.518;2023-04-20T03:10:21;99923.65;;;16.55;28.74
65013;BME280;51715;39.432;-77.518;2023-04-20T03:12:50;99920.04;;;16.31;28.51
65013;BME280;51715;39.432;-77.518;2023-04-20T03:15:18;99916.73;;;16.18;28.86
65013;BME280;51715;39.432;-77.518;2023-04-20T03:17:47;99915.81;;;16.11;28.28
65013;BME280;51715;39.432;-77.518;2023-04-20T03:20:15;99916.71;;;16.00;28.76
65013;BME280;51715;39.432;-77.518;2023-04-20T03:22:43;99919.30;;;16.08;29.15
65013;BME280;51715;39.432;-77.518;2023-04-20T03:25:11;99915.65;;;16.17;28.74
65013;BME280;51715;39.432;-77.518;2023-04-20T03:27:40;99926.41;;;15.75;29.57
65013;BME280;51715;39.432;-77.518;2023-04-20T03:30:10;99938.21;;;15.82;29.27
65013;BME280;51715;39.432;-77.518;2023-04-20T03:32:39;99940.04;;;15.90;29.13
65013;BME280;51715;39.432;-77.518;2023-04-20T03:35:09;99943.39;;;15.86;29.23
65013;BME280;51715;39.432;-77.518;2023-04-20T03:37:37;99944.29;;;15.86;29.21
65013;BME280;51715;39.432;-77.518;2023-04-20T03:40:06;99944.67;;;15.92;29.45
65013;BME280;51715;39.432;-77.518;2023-04-20T03:42:35;99944.00;;;15.90;29.39
65013;BME280;51715;39.432;-77.518;2023-04-20T03:45:05;99948.30;;;15.80;30.30
65013;BME280;51715;39.432;-77.518;2023-04-20T03:47:34;99958.90;;;15.10;30.86
65013;BME280;51715;39.432;-77.518;2023-04-20T03:50:03;99957.85;;;15.55;30.80
65013;BME280;51715;39.432;-77.518;2023-04-20T03:52:32;99957.85;;;15.65;30.79
65013;BME280;51715;39.432;-77.518;2023-04-20T03:55:01;99962.18;;;15.62;31.22
65013;BME280;51715;39.432;-77.518;2023-04-20T03:57:29;99963.74;;;15.40;31.44
65013;BME280;51715;39.432;-77.518;2023-04-20T03:59:58;99968.68;;;15.54;31.15
65013;BME280;51715;39.432;-77.518;2023-04-20T04:04:06;99975.18;;;15.15;30.59
65013;BME280;51715;39.432;-77.518;2023-04-20T04:06:34;99969.56;;;15.03;30.74
65013;BME280;51715;39.432;-77.518;2023-04-20T04:09:02;99969.34;;;15.28;30.24
65013;BME280;51715;39.432;-77.518;2023-04-20T04:11:31;99972.99;;;15.30;29.58
65013;BME280;51715;39.432;-77.518;2023-04-20T04:14:00;99977.01;;;15.75;29.52
65013;BME280;51715;39.432;-77.518;2023-04-20T04:16:29;99977.06;;;15.61;30.30
65013;BME280;51715;39.432;-77.518;2023-04-20T04:18:57;99977.27;;;15.57;29.78
65013;BME280;51715;39.432;-77.518;2023-04-20T04:21:25;99975.33;;;15.52;30.20
65013;BME280;51715;39.432;-77.518;2023-04-20T04:23:53;99973.70;;;15.29;30.56
65013;BME280;51715;39.432;-77.518;2023-04-20T04:26:21;99980.22;;;15.44;30.69
65013;BME280;51715;39.432;-77.518;2023-04-20T04:28:51;99976.55;;;15.14;30.89
65013;BME280;51715;39.432;-77.518;2023-04-20T04:31:19;99974.06;;;15.35;31.25
65013;BME280;51715;39.432;-77.518;2023-04-20T04:33:48;99971.24;;;15.54;31.51
65013;BME280;51715;39.432;-77.518;2023-04-20T04:36:15;99971.36;;;15.01;31.48
65013;BME280;51715;39.432;-77.518;2023-04-20T04:38:43;99973.69;;;15.11;31.31
65013;BME280;51715;39.432;-77.518;2023-04-20T04:41:12;99978.34;;;15.27;31.42
65013;BME280;51715;39.432;-77.518;2023-04-20T04:43:40;99975.07;;;15.06;31.19
65013;BME280;51715;39.432;-77.518;2023-04-20T04:46:09;99973.54;;;15.18;31.15
65013;BME280;51715;39.432;-77.518;2023-04-20T04:48:38;99982.50;;;15.14;31.53
65013;BME280;51715;39.432;-77.518;2023-04-20T04:51:06;99982.00;;;15.20;31.41
65013;BME280;51715;39.432;-77.518;2023-04-20T04:53:34;99979.05;;;15.11;31.43
65013;BME280;51715;39.432;-77.518;2023-04-20T04:56:04;99978.31;;;15.30;31.46
65013;BME280;51715;39.432;-77.518;2023-04-20T04:58:32;99974.26;;;15.23;31.63
65013;BME280;51715;39.432;-77.518;2023-04-20T05:01:00;99974.34;;;15.20;30.81
65013;BME280;51715;39.432;-77.518;2023-04-20T05:03:29;99983.02;;;15.26;30.94
65013;BME280;51715;39.432;-77.518;2023-04-20T05:05:57;99978.30;;;15.35;30.58
65013;BME280;51715;39.432;-77.518;2023-04-20T05:08:25;99986.13;;;15.15;30.76
65013;BME280;51715;39.432;-77.518;2023-04-20T05:10:53;99995.98;;;15.25;31.21
65013;BME280;51715;39.432;-77.518;2023-04-20T05:13:21;99995.02;;;15.35;31.83
65013;BME280;51715;39.432;-77.518;2023-04-20T05:15:49;99991.51;;;15.42;31.48
65013;BME280;51715;39.432;-77.518;2023-04-20T05:18:18;99994.21;;;15.44;31.48
65013;BME280;51715;39.432;-77.518;2023-04-20T05:20:46;99992.54;;;15.24;31.58
65013;BME280;51715;39.432;-77.518;2023-04-20T05:23:14;99994.65;;;15.35;31.72
65013;BME280;51715;39.432;-77.518;2023-04-20T05:25:42;99994.84;;;15.15;32.24
65013;BME280;51715;39.432;-77.518;2023-04-20T05:28:11;99993.75;;;14.97;31.83
65013;BME280;51715;39.432;-77.518;2023-04-20T05:30:39;99991.51;;;15.19;31.58
65013;BME280;51715;39.432;-77.518;2023-04-20T05:33:07;99986.80;;;15.12;31.35
65013;BME280;51715;39.432;-77.518;2023-04-20T05:35:35;99984.79;;;15.15;31.37
65013;BME280;51715;39.432;-77.518;2023-04-20T05:38:02;99987.71;;;14.83;32.01
65013;BME280;51715;39.432;-77.518;2023-04-20T05:40:31;99988.28;;;14.97;31.34
65013;BME280;51715;39.432;-77.518;2023-04-20T05:42:59;99992.03;;;14.85;31.09
65013;BME280;51715;39.432;-77.518;2023-04-20T05:45:27;99997.27;;;14.81;32.76
65013;BME280;51715;39.432;-77.518;2023-04-20T05:47:56;99991.67;;;14.77;31.84
65013;BME280;51715;39.432;-77.518;2023-04-20T05:50:25;99984.85;;;14.96;31.19
65013;BME280;51715;39.432;-77.518;2023-04-20T05:52:54;99983.38;;;14.36;33.03
65013;BME280;51715;39.432;-77.518;2023-04-20T05:55:22;99980.40;;;14.26;32.50
65013;BME280;51715;39.432;-77.518;2023-04-20T05:57:51;99975.40;;;14.38;32.89
65013;BME280;51715;39.432;-77.518;2023-04-20T06:00:20;99972.38;;;14.53;32.71
65013;BME280;51715;39.432;-77.518;2023-04-20T06:02:48;99970.64;;;14.58;32.58
65013;BME280;51715;39.432;-77.518;2023-04-20T06:05:16;99973.73;;;14.61;32.91
65013;BME280;51715;39.432;-77.518;2023-04-20T06:07:43;99963.81;;;14.70;32.59
65013;BME280;51715;39.432;-77.518;2023-04-20T06:10:12;99964.89;;;14.55;32.64
65013;BME280;51715;39.432;-77.518;2023-04-20T06:12:41;99965.38;;;14.58;32.85
65013;BME280;51715;39.432;-77.518;2023-04-20T06:15:10;99963.18;;;14.59;32.53
65013;BME280;51715;39.432;-77.518;2023-04-20T06:17:38;99963.61;;;14.53;32.70
65013;BME280;51715;39.432;-77.518;2023-04-20T06:20:08;99958.00;;;14.46;32.96
65013;BME280;51715;39.432;-77.518;2023-04-20T06:22:41;99961.50;;;14.35;33.74
65013;BME280;51715;39.432;-77.518;2023-04-20T06:25:10;99958.19;;;14.33;33.09
65013;BME280;51715;39.432;-77.518;2023-04-20T06:27:38;99954.01;;;14.64;33.13
65013;BME280;51715;39.432;-77.518;2023-04-20T06:30:06;99954.86;;;13.99;34.36
65013;BME280;51715;39.432;-77.518;2023-04-20T06:32:35;99944.16;;;14.40;33.45
65013;BME280;51715;39.432;-77.518;2023-04-20T06:35:04;99942.92;;;14.44;33.34
65013;BME280;51715;39.432;-77.518;2023-04-20T06:37:33;99939.21;;;14.35;33.19
65013;BME280;51715;39.432;-77.518;2023-04-20T06:40:02;99937.10;;;14.42;33.03
65013;BME280;51715;39.432;-77.518;2023-04-20T06:42:30;99931.19;;;14.48;33.01
65013;BME280;51715;39.432;-77.518;2023-04-20T06:44:58;99930.62;;;14.44;33.39
65013;BME280;51715;39.432;-77.518;2023-04-20T06:47:27;99923.18;;;14.55;33.30
65013;BME280;51715;39.432;-77.518;2023-04-20T06:49:55;99917.70;;;14.71;33.08
65013;BME280;51715;39.432;-77.518;2023-04-20T06:52:22;99913.60;;;14.76;32.71
65013;BME280;51715;39.432;-77.518;2023-04-20T06:54:50;99912.95;;;14.78;32.24
65013;BME280;51715;39.432;-77.518;2023-04-20T06:57:19;99909.06;;;14.63;32.34
65013;BME280;51715;39.432;-77.518;2023-04-20T06:59:46;99901.33;;;14.99;32.49
65013;BME280;51715;39.432;-77.518;2023-04-20T07:02:15;99901.36;;;14.55;32.47
65013;BME280;51715;39.432;-77.518;2023-04-20T07:04:43;99897.54;;;14.65;32.21
65013;BME280;51715;39.432;-77.518;2023-04-20T07:07:11;99897.95;;;15.06;32.09
65013;BME280;51715;39.432;-77.518;2023-04-20T07:09:39;99899.51;;;15.11;32.02
65013;BME280;51715;39.432;-77.518;2023-04-20T07:12:07;99900.07;;;15.10;32.02
65013;BME280;51715;39.432;-77.518;2023-04-20T07:14:35;99901.35;;;15.07;32.15
65013;BME280;51715;39.432;-77.518;2023-04-20T07:17:03;99903.24;;;15.26;32.72
65013;BME280;51715;39.432;-77.518;2023-04-20T07:19:32;99900.86;;;15.07;32.11
65013;BME280;51715;39.432;-77.518;2023-04-20T07:22:01;99900.94;;;14.95;32.86
65013;BME280;51715;39.432;-77.518;2023-04-20T07:24:29;99903.50;;;14.75;32.89
65013;BME280;51715;39.432;-77.518;2023-04-20T07:26:57;99901.59;;;14.77;32.39
65013;BME280;51715;39.432;-77.518;2023-04-20T07:29:25;99907.84;;;15.24;33.04
65013;BME280;51715;39.432;-77.518;2023-04-20T07:31:53;99910.85;;;15.05;33.11
65013;BME280;51715;39.432;-77.518;2023-04-20T07:34:22;99914.64;;;14.82;32.74
65013;BME280;51715;39.432;-77.518;2023-04-20T07:36:50;99917.61;;;15.25;32.94
65013;BME280;51715;39.432;-77.518;2023-04-20T07:39:19;99914.80;;;14.79;33.72
65013;BME280;51715;39.432;-77.518;2023-04-20T07:41:47;99917.10;;;14.77;35.14
65013;BME280;51715;39.432;-77.518;2023-04-20T07:44:15;99918.58;;;14.86;34.90
65013;BME280;51715;39.432;-77.518;2023-04-20T07:46:43;99915.25;;;14.91;34.20
65013;BME280;51715;39.432;-77.518;2023-04-20T07:49:12;99913.59;;;14.69;34.31
65013;BME280;51715;39.432;-77.518;2023-04-20T07:51:39;99908.85;;;14.60;35.38
65013;BME280;51715;39.432;-77.518;2023-04-20T07:54:07;99911.53;;;14.36;34.75
65013;BME280;51715;39.432;-77.518;2023-04-20T07:56:35;99907.40;;;14.54;34.26
65013;BME280;51715;39.432;-77.518;2023-04-20T07:59:04;99903.86;;;14.72;35.04
65013;BME280;51715;39.432;-77.518;2023-04-20T08:01:32;99897.71;;;14.74;34.94
65013;BME280;51715;39.432;-77.518;2023-04-20T08:04:01;99896.14;;;14.84;34.65
65013;BME280;51715;39.432;-77.518;2023-04-20T08:06:29;99887.51;;;15.04;34.12
65013;BME280;51715;39.432;-77.518;2023-04-20T08:08:58;99884.81;;;14.67;34.13
65013;BME280;51715;39.432;-77.518;2023-04-20T08:11:26;99883.93;;;14.98;34.65
65013;BME280;51715;39.432;-77.518;2023-04-20T08:13:55;99886.85;;;15.04;33.87
65013;BME280;51715;39.432;-77.518;2023-04-20T08:16:23;99889.46;;;15.04;34.24
65013;BME280;51715;39.432;-77.518;2023-04-20T08:18:51;99892.68;;;15.05;34.38
65013;BME280;51715;39.432;-77.518;2023-04-20T08:21:19;99896.53;;;14.78;34.90
65013;BME280;51715;39.432;-77.518;2023-04-20T08:23:47;99897.69;;;14.10;35.98
65013;BME280;51715;39.432;-77.518;2023-04-20T08:26:16;99901.58;;;14.45;35.76
65013;BME280;51715;39.432;-77.518;2023-04-20T08:28:45;99901.60;;;14.53;35.81
65013;BME280;51715;39.432;-77.518;2023-04-20T08:31:12;99902.53;;;14.60;35.01
65013;BME280;51715;39.432;-77.518;2023-04-20T08:33:40;99908.59;;;14.70;34.69
65013;BME280;51715;39.432;-77.518;2023-04-20T08:36:08;99906.13;;;14.77;34.25
65013;BME280;51715;39.432;-77.518;2023-04-20T08:38:36;99915.72;;;14.19;35.69
65013;BME280;51715;39.432;-77.518;2023-04-20T08:41:04;99923.36;;;14.43;35.26
65013;BME280;51715;39.432;-77.518;2023-04-20T08:43:32;99927.28;;;14.75;35.17
65013;BME280;51715;39.432;-77.518;2023-04-20T08:46:01;99929.37;;;14.68;35.55
65013;BME280;51715;39.432;-77.518;2023-04-20T08:48:33;99937.63;;;14.44;35.27
65013;BME280;51715;39.432;-77.518;2023-04-20T08:51:01;99939.41;;;14.53;34.98
65013;BME280;51715;39.432;-77.518;2023-04-20T08:53:29;99938.60;;;14.56;35.34
65013;BME280;51715;39.432;-77.518;2023-04-20T08:55:58;99943.06;;;14.67;34.91
65013;BME280;51715;39.432;-77.518;2023-04-20T08:58:30;99940.15;;;14.52;35.79
65013;BME280;51715;39.432;-77.518;2023-04-20T09:00:58;99940.00;;;14.16;36.08
65013;BME280;51715;39.432;-77.518;2023-04-20T09:03:36;99939.87;;;14.33;35.88
65013;BME280;51715;39.432;-77.518;2023-04-20T09:06:14;99936.50;;;14.70;35.94
65013;BME280;51715;39.432;-77.518;2023-04-20T09:08:43;99933.81;;;14.77;35.49
65013;BME280;51715;39.432;-77.518;2023-04-20T09:11:21;99932.21;;;14.60;35.54
65013;BME280;51715;39.432;-77.518;2023-04-20T09:14:03;99934.56;;;14.57;35.87
65013;BME280;51715;39.432;-77.518;2023-04-20T09:16:31;99940.10;;;14.51;36.19
65013;BME280;51715;39.432;-77.518;2023-04-20T09:19:00;99941.01;;;14.67;36.10
65013;BME280;51715;39.432;-77.518;2023-04-20T09:21:29;99942.36;;;14.52;35.50
65013;BME280;51715;39.432;-77.518;2023-04-20T09:23:59;99941.83;;;14.71;35.63
65013;BME280;51715;39.432;-77.518;2023-04-20T09:26:31;99945.92;;;14.40;35.78
65013;BME280;51715;39.432;-77.518;2023-04-20T09:29:00;99950.27;;;14.68;35.45
65013;BME280;51715;39.432;-77.518;2023-04-20T09:31:29;99948.83;;;14.68;35.86
65013;BME280;51715;39.432;-77.518;2023-04-20T09:33:58;99948.49;;;14.79;36.13
65013;BME280;51715;39.432;-77.518;2023-04-20T09:36:36;99948.34;;;14.40;36.43
65013;BME280;51715;39.432;-77.518;2023-04-20T09:39:07;99952.55;;;14.52;36.11
65013;BME280;51715;39.432;-77.518;2023-04-20T09:41:37;99957.29;;;14.45;36.67
65013;BME280;51715;39.432;-77.518;2023-04-20T09:44:07;99963.06;;;14.49;36.63
65013;BME280;51715;39.432;-77.518;2023-04-20T09:46:36;99966.47;;;14.36;36.89
65013;BME280;51715;39.432;-77.518;2023-04-20T09:49:05;99973.95;;;14.53;36.84
65013;BME280;51715;39.432;-77.518;2023-04-20T09:51:35;99977.29;;;14.54;36.82
65013;BME280;51715;39.432;-77.518;2023-04-20T09:54:06;99981.81;;;14.42;36.57
65013;BME280;51715;39.432;-77.518;2023-04-20T09:56:34;99985.48;;;14.25;36.97
65013;BME280;51715;39.432;-77.518;2023-04-20T09:59:03;99988.98;;;14.15;37.22
65013;BME280;51715;39.432;-77.518;2023-04-20T10:01:32;99987.66;;;14.20;37.07
65013;BME280;51715;39.432;-77.518;2023-04-20T10:04:05;99982.42;;;14.46;36.92
65013;BME280;51715;39.432;-77.518;2023-04-20T10:06:35;99984.69;;;14.18;37.14
65013;BME280;51715;39.432;-77.518;2023-04-20T10:09:06;99987.50;;;14.28;36.80
65013;BME280;51715;39.432;-77.518;2023-04-20T10:11:35;99989.64;;;14.34;36.69
65013;BME280;51715;39.432;-77.518;2023-04-20T10:14:15;99981.50;;;14.20;36.72
65013;BME280;51715;39.432;-77.518;2023-04-20T10:16:45;99981.40;;;13.91;36.92
65013;BME280;51715;39.432;-77.518;2023-04-20T10:19:14;99983.19;;;13.86;34.50
65013;BME280;51715;39.432;-77.518;2023-04-20T10:21:47;99985.33;;;14.02;33.88
65013;BME280;51715;39.432;-77.518;2023-04-20T10:24:28;99990.13;;;14.10;34.20
65013;BME280;51715;39.432;-77.518;2023-04-20T10:26:57;99988.24;;;14.43;34.26
65013;BME280;51715;39.432;-77.518;2023-04-20T10:29:27;99993.54;;;14.33;34.61
65013;BME280;51715;39.432;-77.518;2023-04-20T10:31:56;99996.94;;;14.52;34.18
65013;BME280;51715;39.432;-77.518;2023-04-20T10:34:33;99997.19;;;14.41;34.14
65013;BME280;51715;39.432;-77.518;2023-04-20T10:37:10;100001.77;;;14.75;33.64
65013;BME280;51715;39.432;-77.518;2023-04-20T10:39:45;100006.32;;;14.79;33.89
65013;BME280;51715;39.432;-77.518;2023-04-20T10:42:13;100012.98;;;14.86;32.97
65013;BME280;51715;39.432;-77.518;2023-04-20T10:44:47;100017.49;;;14.74;32.99
65013;BME280;51715;39.432;-77.518;2023-04-20T10:47:16;100019.04;;;14.77;33.83
65013;BME280;51715;39.432;-77.518;2023-04-20T10:49:46;100017.66;;;14.84;34.17
65013;BME280;51715;39.432;-77.518;2023-04-20T10:52:14;100015.68;;;14.59;34.08
65013;BME280;51715;39.432;-77.518;2023-04-20T10:54:43;100012.76;;;14.92;33.91
65013;BME280;51715;39.432;-77.518;2023-04-20T10:57:16;100015.60;;;14.97;34.00
65013;BME280;51715;39.432;-77.518;2023-04-20T10:59:45;100013.35;;;14.98;34.51
65013;BME280;51715;39.432;-77.518;2023-04-20T11:02:13;100011.42;;;14.67;34.22
65013;BME280;51715;39.432;-77.518;2023-04-20T11:04:43;100014.17;;;15.03;34.24
65013;BME280;51715;39.432;-77.518;2023-04-20T11:07:11;100015.67;;;15.14;34.07
65013;BME280;51715;39.432;-77.518;2023-04-20T11:09:40;100018.20;;;15.09;33.90
65013;BME280;51715;39.432;-77.518;2023-04-20T11:12:09;100014.99;;;15.28;33.31
65013;BME280;51715;39.432;-77.518;2023-04-20T11:14:49;100019.31;;;15.04;34.23
65013;BME280;51715;39.432;-77.518;2023-04-20T11:17:18;100020.44;;;14.96;34.69
65013;BME280;51715;39.432;-77.518;2023-04-20T11:19:46;100025.78;;;14.80;34.60
65013;BME280;51715;39.432;-77.518;2023-04-20T11:22:21;100032.40;;;14.95;33.99
65013;BME280;51715;39.432;-77.518;2023-04-20T11:24:50;100041.21;;;15.25;34.60
65013;BME280;51715;39.432;-77.518;2023-04-20T11:27:19;100043.64;;;15.14;35.25
65013;BME280;51715;39.432;-77.518;2023-04-20T11:29:56;100039.68;;;14.71;35.95
65013;BME280;51715;39.432;-77.518;2023-04-20T11:32:25;100037.94;;;15.12;35.57
65013;BME280;51715;39.432;-77.518;2023-04-20T11:35:02;100045.83;;;15.37;36.05
65013;BME280;51715;39.432;-77.518;2023-04-20T11:37:32;100051.35;;;15.11;35.66
65013;BME280;51715;39.432;-77.518;2023-04-20T11:40:02;100053.19;;;15.15;36.50
65013;BME280;51715;39.432;-77.518;2023-04-20T11:42:30;100048.30;;;15.56;36.14
65013;BME280;51715;39.432;-77.518;2023-04-20T11:44:59;100052.48;;;15.76;34.88
65013;BME280;51715;39.432;-77.518;2023-04-20T11:47:27;100058.88;;;16.15;33.72
65013;BME280;51715;39.432;-77.518;2023-04-20T11:49:56;100058.72;;;16.19;34.26
65013;BME280;51715;39.432;-77.518;2023-04-20T11:52:24;100061.24;;;16.38;32.49
65013;BME280;51715;39.432;-77.518;2023-04-20T11:54:52;100060.68;;;16.34;32.50
65013;BME280;51715;39.432;-77.518;2023-04-20T11:57:21;100060.80;;;16.59;31.75
65013;BME280;51715;39.432;-77.518;2023-04-20T11:59:49;100066.93;;;16.90;32.81
65013;BME280;51715;39.432;-77.518;2023-04-20T12:02:18;100068.32;;;16.94;33.27
65013;BME280;51715;39.432;-77.518;2023-04-20T12:04:45;100069.05;;;17.15;32.86
65013;BME280;51715;39.432;-77.518;2023-04-20T12:07:13;100069.59;;;17.44;32.49
65013;BME280;51715;39.432;-77.518;2023-04-20T12:09:42;100064.54;;;17.47;31.47
65013;BME280;51715;39.432;-77.518;2023-04-20T12:12:11;100063.61;;;16.83;33.58
65013;BME280;51715;39.432;-77.518;2023-04-20T12:14:39;100060.55;;;16.92;29.20
65013;BME280;51715;39.432;-77.518;2023-04-20T12:17:07;100067.68;;;17.55;30.24
65013;BME280;51715;39.432;-77.518;2023-04-20T12:19:35;100076.64;;;17.71;29.83
65013;BME280;51715;39.432;-77.518;2023-04-20T12:22:04;100082.51;;;18.12;28.04
65013;BME280;51715;39.432;-77.518;2023-04-20T12:24:31;100091.13;;;18.06;28.45
65013;BME280;51715;39.432;-77.518;2023-04-20T12:27:00;100093.67;;;18.68;26.74
65013;BME280;51715;39.432;-77.518;2023-04-20T12:29:28;100098.26;;;18.94;24.67
65013;BME280;51715;39.432;-77.518;2023-04-20T12:31:56;100103.38;;;19.21;25.85
65013;BME280;51715;39.432;-77.518;2023-04-20T12:34:25;100110.15;;;19.47;25.84
65013;BME280;51715;39.432;-77.518;2023-04-20T12:36:54;100113.14;;;19.70;25.60
65013;BME280;51715;39.432;-77.518;2023-04-20T12:39:22;100120.95;;;19.58;26.54
65013;BME280;51715;39.432;-77.518;2023-04-20T12:41:52;100128.07;;;19.91;25.84
65013;BME280;51715;39.432;-77.518;2023-04-20T12:44:20;100127.54;;;20.34;23.60
65013;BME280;51715;39.432;-77.518;2023-04-20T12:46:48;100133.86;;;20.64;21.58
65013;BME280;51715;39.432;-77.518;2023-04-20T12:49:16;100133.07;;;20.31;20.18